Time;durP1;ratioP1;P1;durP2;ratioP2;P2;SDS_P1;SDS_P2;PMS_P1;PMS_P2;Temp;Humidity;BMP_temperature;BMP_pressure;BME280_temperature;BME280_humidity;BME280_pressure;Samples;Min_cycle;Max_cycle;Signal;HPM_P1;HPM_P2
2022/09/25 00:00:15;;;;;;;33.10;18.37;;;14.20;99.90;;;;;;5086780;28;20175;-72
2022/09/25 00:02:41;;;;;;;35.90;17.80;;;14.30;99.90;;;;;;5089353;28;20168;-73
2022/09/25 00:05:07;;;;;;;37.43;19.20;;;14.30;99.90;;;;;;5083181;28;20448;-72
2022/09/25 00:07:32;;;;;;;41.27;20.17;;;14.30;99.90;;;;;;5090966;28;20206;-72
2022/09/25 00:09:58;;;;;;;33.77;18.40;;;14.30;99.90;;;;;;5082306;28;20334;-71
2022/09/25 00:12:23;;;;;;;33.10;18.90;;;14.30;99.90;;;;;;5087748;28;20215;-73
2022/09/25 00:14:50;;;;;;;32.77;18.10;;;14.20;99.90;;;;;;5087375;28;20554;-72
2022/09/25 00:17:15;;;;;;;35.67;17.57;;;14.20;99.90;;;;;;5095742;28;20272;-72
2022/09/25 00:19:49;;;;;;;36.70;19.60;;;14.20;99.90;;;;;;5086407;28;20479;-70
2022/09/25 00:22:20;;;;;;;33.10;18.53;;;14.10;99.90;;;;;;5089277;28;20564;-71
2022/09/25 00:24:46;;;;;;;35.90;18.97;;;14.10;99.90;;;;;;5079539;28;20736;-72
2022/09/25 00:27:12;;;;;;;36.57;18.70;;;14.10;99.90;;;;;;5090414;28;20434;-72
2022/09/25 00:29:39;;;;;;;29.83;17.60;;;14.10;99.90;;;;;;5082066;28;20453;-72
2022/09/25 00:32:07;;;;;;;26.93;16.43;;;14.00;99.90;;;;;;5090279;28;20488;-72
2022/09/25 00:34:32;;;;;;;23.90;14.93;;;14.10;99.90;;;;;;5084789;28;20758;-72
2022/09/25 00:36:58;;;;;;;27.07;15.63;;;14.20;99.90;;;;;;5090310;28;20820;-72
2022/09/25 00:39:24;;;;;;;25.60;14.87;;;14.20;99.90;;;;;;5085154;28;20188;-72
2022/09/25 00:41:50;;;;;;;20.50;14.00;;;14.20;99.90;;;;;;5090314;28;20179;-71
2022/09/25 00:44:47;;;;;;;22.40;14.70;;;14.10;99.90;;;;;;5085014;28;20441;-72
2022/09/25 00:47:18;;;;;;;20.53;13.50;;;14.10;99.90;;;;;;5090191;28;20433;-73
2022/09/25 00:49:45;;;;;;;37.50;19.67;;;14.20;99.90;;;;;;5088761;28;20440;-72
2022/09/25 00:52:12;;;;;;;43.57;21.03;;;14.20;99.90;;;;;;5089678;28;20457;-71
2022/09/25 00:54:43;;;;;;;42.27;20.80;;;14.20;99.90;;;;;;5079069;28;20438;-73
2022/09/25 00:57:13;;;;;;;35.43;20.00;;;14.30;99.90;;;;;;5083036;28;20799;-73
2022/09/25 00:59:43;;;;;;;42.93;21.90;;;14.30;99.90;;;;;;5088338;28;20433;-73
2022/09/25 01:02:13;;;;;;;37.03;21.30;;;14.30;99.90;;;;;;5088462;28;20899;-72
2022/09/25 01:04:40;;;;;;;45.60;23.93;;;14.30;99.90;;;;;;5088076;28;20914;-73
2022/09/25 01:07:07;;;;;;;43.40;23.20;;;14.30;99.90;;;;;;5089411;28;20430;-73
2022/09/25 01:09:34;;;;;;;43.57;24.00;;;14.30;99.90;;;;;;5087350;28;20433;-72
2022/09/25 01:12:00;;;;;;;49.13;22.30;;;14.30;99.90;;;;;;5088935;28;20518;-72
2022/09/25 01:14:25;;;;;;;61.43;28.90;;;14.30;99.90;;;;;;5083191;28;20749;-72
2022/09/25 01:17:06;;;;;;;70.20;32.97;;;14.30;99.90;;;;;;5094508;28;20615;-72
2022/09/25 01:19:44;;;;;;;70.17;28.17;;;14.30;99.90;;;;;;5085939;28;20175;-72
2022/09/25 01:22:17;;;;;;;62.47;25.50;;;14.20;99.90;;;;;;5070567;28;20453;-71
2022/09/25 01:25:04;;;;;;;42.47;21.13;;;14.30;99.90;;;;;;5085129;28;20509;-72
2022/09/25 01:27:42;;;;;;;41.87;19.30;;;14.30;99.90;;;;;;5089945;28;20433;-73
2022/09/25 01:30:13;;;;;;;34.93;18.43;;;14.30;99.90;;;;;;5085587;28;20811;-72
2022/09/25 01:33:02;;;;;;;45.47;19.63;;;14.20;99.90;;;;;;5089205;28;20449;-74
2022/09/25 01:35:42;;;;;;;35.87;19.23;;;14.20;99.90;;;;;;5087199;28;20433;-72
2022/09/25 01:38:15;;;;;;;37.23;19.37;;;14.10;99.90;;;;;;5082424;28;20437;-72
2022/09/25 01:41:07;;;;;;;34.10;19.00;;;14.10;99.90;;;;;;5087806;28;20457;-70
2022/09/25 01:43:50;;;;;;;38.17;19.83;;;14.10;99.90;;;;;;5084997;28;20491;-72
2022/09/25 01:46:20;;;;;;;41.90;19.80;;;14.00;99.90;;;;;;5077615;28;20469;-73
2022/09/25 01:48:52;;;;;;;47.40;20.93;;;14.00;99.90;;;;;;5080982;28;20450;-72
2022/09/25 01:51:24;;;;;;;37.70;19.97;;;14.10;99.90;;;;;;5088488;28;20481;-72
2022/09/25 01:53:55;;;;;;;43.10;20.67;;;14.00;99.90;;;;;;5079875;28;20430;-72
2022/09/25 01:56:35;;;;;;;46.73;22.23;;;14.10;99.90;;;;;;5085193;28;20547;-71
2022/09/25 01:59:26;;;;;;;43.80;22.50;;;14.10;99.90;;;;;;5079734;28;20477;-72
2022/09/25 02:01:54;;;;;;;48.53;23.47;;;14.00;99.90;;;;;;5088259;28;20413;-72
2022/09/25 02:04:25;;;;;;;45.07;22.50;;;14.10;99.90;;;;;;5080203;28;20589;-71
2022/09/25 02:06:53;;;;;;;50.27;24.00;;;14.20;99.90;;;;;;5087560;28;20555;-72
2022/09/25 02:09:28;;;;;;;50.17;24.80;;;14.20;99.90;;;;;;5087044;28;20800;-71
2022/09/25 02:11:59;;;;;;;49.37;23.57;;;14.20;99.90;;;;;;5079379;28;20774;-72
2022/09/25 02:14:48;;;;;;;46.87;24.07;;;14.20;99.90;;;;;;5086141;28;20425;-72
2022/09/25 02:20:30;;;;;;;69.77;26.13;;;14.20;99.90;;;;;;5080908;28;20451;-72
2022/09/25 02:22:52;;;;;;;58.97;26.03;;;14.20;99.90;;;;;;5080894;28;20783;-72
2022/09/25 02:25:32;;;;;;;70.70;27.83;;;14.10;99.90;;;;;;5077006;28;20657;-72
2022/09/25 02:27:57;;;;;;;64.07;29.30;;;14.10;99.90;;;;;;5088645;28;20421;-70
2022/09/25 02:30:24;;;;;;;66.90;28.87;;;14.20;99.90;;;;;;5086458;28;20441;-72
2022/09/25 02:32:49;;;;;;;64.93;29.83;;;14.10;99.90;;;;;;5085865;28;20203;-72
2022/09/25 02:35:15;;;;;;;64.57;28.57;;;14.10;99.90;;;;;;5082697;28;20889;-73
2022/09/25 02:37:40;;;;;;;70.40;29.90;;;14.10;99.90;;;;;;5077583;28;20216;-72
2022/09/25 02:40:07;;;;;;;61.43;28.03;;;14.10;99.90;;;;;;5087973;28;20183;-72
2022/09/25 02:42:54;;;;;;;58.13;28.97;;;14.10;99.90;;;;;;5087100;28;20184;-72
2022/09/25 02:45:49;;;;;;;65.37;28.97;;;14.20;99.90;;;;;;5092264;28;20489;-72
2022/09/25 02:48:25;;;;;;;60.20;29.13;;;14.20;99.90;;;;;;5090309;28;20499;-72
2022/09/25 02:51:05;;;;;;;62.37;28.77;;;14.10;99.90;;;;;;5092287;28;20771;-72
2022/09/25 02:53:54;;;;;;;65.37;28.87;;;14.10;99.90;;;;;;5088139;28;20443;-71
2022/09/25 02:56:28;;;;;;;56.40;27.10;;;14.10;99.90;;;;;;5084867;28;20850;-72
2022/09/25 02:58:58;;;;;;;49.17;25.67;;;14.10;99.90;;;;;;5088514;28;20446;-72
2022/09/25 03:01:27;;;;;;;50.50;26.40;;;14.20;99.90;;;;;;5091292;28;20472;-70
2022/09/25 03:03:56;;;;;;;53.47;25.10;;;14.20;99.90;;;;;;5088584;28;20850;-73
2022/09/25 03:06:23;;;;;;;47.07;24.43;;;14.30;99.90;;;;;;5092185;28;20508;-71
2022/09/25 03:08:55;;;;;;;45.20;23.07;;;14.30;99.90;;;;;;5090876;28;20978;-72
2022/09/25 03:11:22;;;;;;;50.73;24.70;;;14.30;99.90;;;;;;5091672;28;20457;-70
2022/09/25 03:13:59;;;;;;;43.03;23.30;;;14.30;99.90;;;;;;5084896;28;20433;-72
2022/09/25 03:16:46;;;;;;;42.40;23.03;;;14.20;99.90;;;;;;5105836;28;20421;-72
2022/09/25 03:19:12;;;;;;;44.93;22.37;;;14.20;99.90;;;;;;5096590;28;20444;-73
2022/09/25 03:21:38;;;;;;;45.33;23.33;;;14.10;99.90;;;;;;5090800;28;20418;-72
2022/09/25 03:24:04;;;;;;;38.90;21.43;;;14.20;99.90;;;;;;5083050;28;20428;-72
2022/09/25 03:26:29;;;;;;;41.33;21.57;;;14.20;99.90;;;;;;5088401;28;20593;-72
2022/09/25 03:28:56;;;;;;;40.40;21.67;;;14.20;99.90;;;;;;5089904;28;20473;-72
2022/09/25 03:31:22;;;;;;;43.40;22.00;;;14.20;99.90;;;;;;5090713;28;20203;-72
2022/09/25 03:33:48;;;;;;;46.47;22.93;;;14.20;99.90;;;;;;5084025;28;20430;-72
2022/09/25 03:36:19;;;;;;;41.50;22.57;;;14.20;99.90;;;;;;5091562;28;20171;-73
2022/09/25 03:38:48;;;;;;;43.67;23.93;;;14.20;99.90;;;;;;5088351;28;20449;-73
2022/09/25 03:41:15;;;;;;;39.93;21.93;;;14.20;99.90;;;;;;5090168;28;20417;-72
2022/09/25 03:43:42;;;;;;;35.87;20.50;;;14.20;99.90;;;;;;5088740;28;20437;-73
2022/09/25 03:46:12;;;;;;;35.10;19.10;;;14.20;99.90;;;;;;5090264;28;20754;-72
2022/09/25 03:48:38;;;;;;;29.63;18.23;;;14.20;99.90;;;;;;5082785;28;20445;-72
2022/09/25 03:51:05;;;;;;;28.43;16.90;;;14.10;99.90;;;;;;5088123;28;20463;-72
2022/09/25 03:53:32;;;;;;;28.40;16.40;;;14.10;99.90;;;;;;5084426;28;21003;-72
2022/09/25 03:55:59;;;;;;;23.67;15.20;;;14.20;99.90;;;;;;5087032;28;20517;-73
2022/09/25 03:58:24;;;;;;;26.33;15.67;;;14.10;99.90;;;;;;5087788;28;20452;-72
2022/09/25 04:00:50;;;;;;;26.73;15.47;;;14.00;99.90;;;;;;5083621;28;20415;-73
2022/09/25 04:03:16;;;;;;;29.63;16.43;;;14.00;99.90;;;;;;5073787;28;20249;-73
2022/09/25 04:05:42;;;;;;;29.30;16.10;;;13.90;99.90;;;;;;5088427;28;20172;-73
2022/09/25 04:08:09;;;;;;;28.63;16.17;;;14.00;99.90;;;;;;5090263;28;20959;-72
2022/09/25 04:10:37;;;;;;;33.27;17.20;;;14.00;99.90;;;;;;5089817;28;20276;-74
2022/09/25 04:13:05;;;;;;;33.50;18.57;;;14.00;99.90;;;;;;5078366;28;21266;-72
2022/09/25 04:15:31;;;;;;;37.17;19.60;;;14.10;99.90;;;;;;5091430;28;20682;-72
2022/09/25 04:17:57;;;;;;;42.00;20.10;;;14.10;99.90;;;;;;5089493;28;20480;-72
2022/09/25 04:20:22;;;;;;;47.37;21.67;;;14.10;99.90;;;;;;5090082;28;20172;-73
2022/09/25 04:22:48;;;;;;;43.37;21.20;;;14.10;99.90;;;;;;5082281;28;20434;-73
2022/09/25 04:25:13;;;;;;;43.23;21.60;;;14.00;99.90;;;;;;5087115;28;20237;-73
2022/09/25 04:27:39;;;;;;;43.30;22.80;;;14.00;99.90;;;;;;5090229;28;20280;-73
2022/09/25 04:30:06;;;;;;;44.90;20.43;;;14.00;99.90;;;;;;5084861;28;20206;-72
2022/09/25 04:35:16;;;;;;;32.17;18.63;;;14.00;99.90;;;;;;5086913;28;20579;-74
2022/09/25 04:37:41;;;;;;;36.00;18.30;;;14.00;99.90;;;;;;5090408;28;20513;-72
2022/09/25 04:40:07;;;;;;;28.60;15.77;;;14.00;99.90;;;;;;5085174;28;20196;-72
2022/09/25 04:42:33;;;;;;;31.80;15.50;;;13.90;99.90;;;;;;5088089;28;20176;-71
2022/09/25 04:44:58;;;;;;;28.93;16.43;;;13.90;99.90;;;;;;5086352;28;20440;-72
2022/09/25 04:47:30;;;;;;;32.33;16.50;;;13.80;99.90;;;;;;5090484;28;20279;-70
2022/09/25 04:49:56;;;;;;;30.10;14.63;;;13.80;99.90;;;;;;5083767;28;20310;-72
2022/09/25 04:52:22;;;;;;;28.57;15.20;;;13.70;99.90;;;;;;5090168;28;20847;-71
2022/09/25 04:54:47;;;;;;;26.43;14.10;;;13.70;99.90;;;;;;5080767;28;20173;-72
2022/09/25 04:57:15;;;;;;;26.30;15.83;;;13.70;99.90;;;;;;5081124;28;20226;-72
2022/09/25 04:59:40;;;;;;;29.87;15.83;;;13.80;99.90;;;;;;5088841;28;20186;-72
2022/09/25 05:02:06;;;;;;;31.17;15.33;;;13.80;99.90;;;;;;5081890;28;20433;-72
2022/09/25 05:04:31;;;;;;;31.73;16.53;;;13.80;99.90;;;;;;5088624;28;20600;-72
2022/09/25 05:06:57;;;;;;;32.93;16.80;;;13.80;99.90;;;;;;5088312;28;20180;-72
2022/09/25 05:09:22;;;;;;;31.90;17.80;;;13.80;99.90;;;;;;5081580;28;20184;-72
2022/09/25 05:11:48;;;;;;;31.97;16.87;;;13.90;99.90;;;;;;5087585;28;20235;-72
2022/09/25 05:14:13;;;;;;;34.80;17.03;;;13.90;99.90;;;;;;5084839;28;20185;-72
2022/09/25 05:16:39;;;;;;;30.23;17.27;;;13.90;99.90;;;;;;5085544;28;20164;-72
2022/09/25 05:19:04;;;;;;;35.73;17.63;;;13.90;99.90;;;;;;5083575;28;20274;-72
2022/09/25 05:21:31;;;;;;;31.13;16.20;;;13.80;99.90;;;;;;5080563;28;20190;-74
2022/09/25 05:23:57;;;;;;;34.70;18.30;;;13.90;99.90;;;;;;5084035;28;20258;-71
2022/09/25 05:26:23;;;;;;;36.00;17.37;;;13.90;99.90;;;;;;5087211;28;20524;-72
2022/09/25 05:28:49;;;;;;;34.73;17.07;;;13.90;99.90;;;;;;5083897;28;21032;-73
2022/09/25 05:31:15;;;;;;;29.37;15.80;;;13.90;99.90;;;;;;5088456;28;20227;-73
2022/09/25 05:33:44;;;;;;;26.63;15.33;;;13.90;99.90;;;;;;5086314;28;20191;-72
2022/09/25 05:36:11;;;;;;;33.60;16.43;;;13.90;99.90;;;;;;5082330;28;20432;-72
2022/09/25 05:38:38;;;;;;;29.80;17.13;;;13.90;99.90;;;;;;5085488;28;20453;-72
2022/09/25 05:41:08;;;;;;;30.20;17.13;;;13.80;99.90;;;;;;5088662;28;20896;-72
2022/09/25 05:43:39;;;;;;;41.50;18.53;;;13.90;99.90;;;;;;5082865;28;20435;-72
2022/09/25 05:46:04;;;;;;;37.90;18.00;;;13.90;99.90;;;;;;5081598;28;20406;-73
2022/09/25 05:48:30;;;;;;;30.77;15.97;;;13.90;99.90;;;;;;5081145;28;20451;-71
2022/09/25 05:50:57;;;;;;;31.50;16.47;;;13.90;99.90;;;;;;5083648;28;20210;-72
2022/09/25 05:53:23;;;;;;;29.70;15.47;;;13.90;99.90;;;;;;5079505;28;20627;-72
2022/09/25 05:55:53;;;;;;;45.73;17.83;;;13.80;99.90;;;;;;5085594;28;20525;-71
2022/09/25 05:58:19;;;;;;;37.53;17.87;;;13.90;99.90;;;;;;5084449;28;20998;-71
2022/09/25 06:00:45;;;;;;;35.13;18.43;;;13.90;99.90;;;;;;5087911;28;20425;-71
2022/09/25 06:03:11;;;;;;;32.87;16.43;;;13.90;99.90;;;;;;5087819;28;21022;-71
2022/09/25 06:05:37;;;;;;;36.90;17.13;;;13.90;99.90;;;;;;5085949;28;20597;-71
2022/09/25 06:08:02;;;;;;;33.60;17.03;;;13.90;99.90;;;;;;5084739;28;20199;-72
2022/09/25 06:10:30;;;;;;;32.17;16.43;;;13.90;99.90;;;;;;5082865;28;20796;-72
2022/09/25 06:12:57;;;;;;;36.20;16.50;;;13.90;99.90;;;;;;5077788;28;20666;-71
2022/09/25 06:15:24;;;;;;;36.60;17.63;;;13.90;99.90;;;;;;5084385;28;20417;-72
2022/09/25 06:17:50;;;;;;;30.57;16.20;;;14.00;99.90;;;;;;5086906;28;20446;-72
2022/09/25 06:20:16;;;;;;;32.90;15.90;;;14.00;99.90;;;;;;5086701;28;20444;-71
2022/09/25 06:22:43;;;;;;;41.70;17.90;;;14.00;99.90;;;;;;5079220;28;20271;-72
2022/09/25 06:25:09;;;;;;;32.23;16.10;;;14.00;99.90;;;;;;5091209;28;20229;-72
2022/09/25 06:27:35;;;;;;;30.77;14.77;;;14.00;99.90;;;;;;5092333;28;20440;-72
2022/09/25 06:30:01;;;;;;;30.90;16.10;;;14.00;99.90;;;;;;5089907;28;20528;-72
2022/09/25 06:32:27;;;;;;;30.20;15.77;;;14.00;99.90;;;;;;5092793;28;20548;-72
2022/09/25 06:34:52;;;;;;;28.43;15.20;;;14.00;99.90;;;;;;5089747;28;20676;-73
2022/09/25 06:37:18;;;;;;;39.93;15.73;;;14.00;99.90;;;;;;5091494;28;20203;-72
2022/09/25 06:39:43;;;;;;;26.80;15.00;;;14.10;99.90;;;;;;5091204;28;20673;-72
2022/09/25 06:42:09;;;;;;;27.23;15.20;;;14.10;99.90;;;;;;5092702;28;20171;-73
2022/09/25 06:44:34;;;;;;;32.00;16.40;;;14.00;99.90;;;;;;5087713;28;20183;-70
2022/09/25 06:47:00;;;;;;;30.47;16.30;;;14.00;99.90;;;;;;5087610;28;20190;-72
2022/09/25 06:49:26;;;;;;;40.63;16.40;;;14.00;99.90;;;;;;5090312;28;20338;-72
2022/09/25 06:51:52;;;;;;;29.83;15.77;;;14.10;99.90;;;;;;5089527;28;20237;-72
2022/09/25 06:54:17;;;;;;;31.10;16.42;;;14.00;99.90;;;;;;5083334;28;20424;-73
2022/09/25 06:56:49;;;;;;;20.17;13.47;;;14.10;99.90;;;;;;5089825;28;20168;-74
2022/09/25 06:59:15;;;;;;;16.73;11.43;;;14.60;99.90;;;;;;5088506;28;20176;-74
2022/09/25 07:01:40;;;;;;;16.90;10.70;;;14.70;99.90;;;;;;5087197;28;20441;-74
2022/09/25 07:04:06;;;;;;;12.53;10.00;;;14.70;99.90;;;;;;5089582;28;20421;-74
2022/09/25 07:06:33;;;;;;;14.43;9.80;;;14.90;99.90;;;;;;5091971;28;20271;-72
2022/09/25 07:09:00;;;;;;;13.97;10.10;;;15.00;99.90;;;;;;5090041;28;20215;-75
2022/09/25 07:11:27;;;;;;;16.93;10.33;;;15.00;99.90;;;;;;5091383;28;20449;-77
2022/09/25 07:13:56;;;;;;;11.53;8.47;;;15.00;99.90;;;;;;5083080;28;20422;-76
2022/09/25 07:16:24;;;;;;;18.20;13.10;;;15.20;99.90;;;;;;5086192;28;20497;-73
2022/09/25 07:18:52;;;;;;;20.90;13.77;;;15.00;99.90;;;;;;5085632;28;20446;-73
2022/09/25 07:21:20;;;;;;;18.47;12.13;;;14.80;99.90;;;;;;5085273;28;20521;-72
2022/09/25 07:23:47;;;;;;;21.90;13.77;;;14.60;99.90;;;;;;5090476;28;20955;-72
2022/09/25 07:26:22;;;;;;;23.53;14.97;;;14.50;99.90;;;;;;5087123;28;20524;-72
2022/09/25 07:28:53;;;;;;;22.20;14.27;;;14.50;99.90;;;;;;5085545;28;20496;-73
2022/09/25 07:31:21;;;;;;;21.43;15.00;;;14.50;99.90;;;;;;5070567;28;20446;-72
2022/09/25 07:33:47;;;;;;;25.00;15.60;;;14.50;99.90;;;;;;5087395;28;20454;-72
2022/09/25 07:36:15;;;;;;;20.77;14.57;;;14.50;99.90;;;;;;5084558;28;20402;-72
2022/09/25 07:38:41;;;;;;;26.10;15.10;;;14.60;99.90;;;;;;5090935;28;20529;-72
2022/09/25 07:41:10;;;;;;;25.63;16.87;;;14.70;99.90;;;;;;5083964;28;20441;-72
2022/09/25 07:43:37;;;;;;;22.67;15.70;;;14.70;99.90;;;;;;5089066;28;20453;-72
2022/09/25 07:46:03;;;;;;;24.27;15.10;;;14.80;99.90;;;;;;5092152;28;20455;-71
2022/09/25 07:48:29;;;;;;;24.27;14.87;;;14.80;99.90;;;;;;5082639;28;20866;-73
2022/09/25 07:50:58;;;;;;;20.90;13.60;;;14.80;99.90;;;;;;5090593;28;20764;-72
2022/09/25 07:53:24;;;;;;;21.70;15.10;;;14.80;99.90;;;;;;5085848;28;20422;-71
2022/09/25 07:55:50;;;;;;;21.90;13.97;;;14.70;99.90;;;;;;5090842;28;20467;-72
2022/09/25 07:58:18;;;;;;;24.13;15.40;;;14.70;99.90;;;;;;5089045;28;20674;-73
2022/09/25 08:00:44;;;;;;;21.93;15.40;;;14.60;99.90;;;;;;5085907;28;20628;-72
2022/09/25 08:03:10;;;;;;;24.87;15.73;;;14.50;99.90;;;;;;5088173;28;20525;-73
2022/09/25 08:05:35;;;;;;;26.23;15.70;;;14.50;99.90;;;;;;5077939;28;20626;-73
2022/09/25 08:08:01;;;;;;;23.57;14.60;;;14.50;99.90;;;;;;5076125;28;20446;-72
2022/09/25 08:10:27;;;;;;;22.00;14.00;;;14.60;99.90;;;;;;5080518;28;20180;-74
2022/09/25 08:12:53;;;;;;;20.23;13.50;;;14.50;99.90;;;;;;5077835;28;20461;-74
2022/09/25 08:15:18;;;;;;;18.87;13.30;;;14.50;99.90;;;;;;5089859;28;20172;-73
2022/09/25 08:17:43;;;;;;;18.60;12.40;;;14.60;99.90;;;;;;5082691;28;20203;-73
2022/09/25 08:20:09;;;;;;;18.80;13.30;;;14.60;99.90;;;;;;5085929;28;20727;-73
2022/09/25 08:22:35;;;;;;;18.50;12.60;;;14.50;99.90;;;;;;5090556;28;20179;-71
2022/09/25 08:25:03;;;;;;;21.37;13.37;;;14.50;99.90;;;;;;5083294;28;20183;-73
2022/09/25 08:27:29;;;;;;;19.33;12.50;;;14.60;99.90;;;;;;5089960;28;20207;-73
2022/09/25 08:29:55;;;;;;;16.80;11.30;;;14.50;99.90;;;;;;5084952;28;20450;-73
2022/09/25 08:32:21;;;;;;;15.80;11.00;;;14.60;99.90;;;;;;5090687;28;20456;-73
2022/09/25 08:34:47;;;;;;;15.20;11.00;;;14.60;99.90;;;;;;5088228;28;20184;-72
2022/09/25 08:37:14;;;;;;;16.90;11.13;;;14.60;99.90;;;;;;5082248;28;20193;-74
2022/09/25 08:39:39;;;;;;;13.10;10.13;;;14.60;99.90;;;;;;5087132;28;20437;-72
2022/09/25 08:42:05;;;;;;;13.07;9.40;;;14.70;99.90;;;;;;5083328;28;20429;-72
2022/09/25 08:44:40;;;;;;;14.67;9.50;;;14.90;99.90;;;;;;5088005;28;20484;-72
2022/09/25 08:50:28;;;;;;;14.50;9.70;;;15.20;99.90;;;;;;5089900;28;20483;-73
2022/09/25 08:53:06;;;;;;;11.23;8.43;;;15.50;99.90;;;;;;5083027;28;20872;-75
2022/09/25 08:58:25;;;;;;;13.23;9.30;;;15.50;93.10;;;;;;5079893;28;20457;-72
2022/09/25 09:00:54;;;;;;;11.63;9.13;;;15.60;95.50;;;;;;5090404;28;20962;-73
2022/09/25 09:03:24;;;;;;;14.23;10.60;;;15.60;90.00;;;;;;5088723;28;20434;-73
2022/09/25 09:05:54;;;;;;;12.87;10.13;;;15.60;91.10;;;;;;5089291;28;20409;-71
2022/09/25 09:08:24;;;;;;;12.30;9.47;;;15.60;88.40;;;;;;5087323;28;20445;-73
2022/09/25 09:10:59;;;;;;;14.67;10.40;;;15.60;87.70;;;;;;5087547;28;20430;-72
2022/09/25 09:13:40;;;;;;;14.03;10.90;;;15.60;76.30;;;;;;5083291;28;21186;-71
2022/09/25 09:16:30;;;;;;;14.73;10.47;;;15.50;80.80;;;;;;5094215;28;20428;-71
2022/09/25 09:18:59;;;;;;;13.10;10.13;;;15.60;85.70;;;;;;5087797;28;20449;-73
2022/09/25 09:21:32;;;;;;;13.80;10.20;;;15.50;85.70;;;;;;5088359;28;20406;-73
2022/09/25 09:24:06;;;;;;;14.67;10.57;;;15.40;88.80;;;;;;5089271;28;20471;-73
2022/09/25 09:26:53;;;;;;;13.67;9.80;;;15.30;83.10;;;;;;5083012;28;20436;-73
2022/09/25 09:29:23;;;;;;;13.27;9.97;;;15.40;87.40;;;;;;5086674;28;20454;-73
2022/09/25 09:32:11;;;;;;;13.70;10.60;;;15.40;89.80;;;;;;5087951;28;20493;-71
2022/09/25 09:35:14;;;;;;;13.10;9.50;;;15.50;89.70;;;;;;5080241;28;20427;-73
2022/09/25 09:38:22;;;;;;;14.00;10.17;;;15.70;85.50;;;;;;5082081;28;20952;-71
2022/09/25 09:40:53;;;;;;;12.53;9.80;;;15.90;75.10;;;;;;5079213;28;20488;-73
2022/09/25 09:43:36;;;;;;;12.40;9.70;;;16.00;64.80;;;;;;5082484;28;20861;-73
2022/09/25 09:46:14;;;;;;;14.33;10.20;;;16.30;60.60;;;;;;5073650;28;20457;-73
2022/09/25 09:49:17;;;;;;;11.70;9.03;;;16.60;61.40;;;;;;5085924;28;20449;-73
2022/09/25 09:51:54;;;;;;;12.50;10.10;;;16.90;43.90;;;;;;5088867;28;20448;-73
2022/09/25 09:54:34;;;;;;;12.97;9.20;;;17.00;43.80;;;;;;5072990;28;20411;-73
2022/09/25 09:57:01;;;;;;;11.63;9.00;;;17.30;33.80;;;;;;5069972;28;20425;-74
2022/09/25 09:59:38;;;;;;;10.50;9.40;;;17.70;34.40;;;;;;5069522;28;20782;-73
2022/09/25 10:02:27;;;;;;;12.73;10.43;;;17.90;17.20;;;;;;5071098;28;20410;-73
2022/09/25 10:04:55;;;;;;;13.73;10.13;;;18.00;14.20;;;;;;5069893;28;20446;-73
2022/09/25 10:07:22;;;;;;;12.47;10.50;;;18.00;16.00;;;;;;5068659;28;20561;-73
2022/09/25 10:09:53;;;;;;;11.00;9.50;;;18.20;10.70;;;;;;5069506;28;20463;-73
2022/09/25 10:12:33;;;;;;;13.70;10.50;;;18.20;2.40;;;;;;5069697;28;20765;-74
2022/09/25 10:15:04;;;;;;;12.43;10.67;;;18.30;1.00;;;;;;5094233;28;20453;-73
2022/09/25 10:17:31;;;;;;;13.20;9.70;;;18.30;1.00;;;;;;5106256;28;20428;-74
2022/09/25 10:20:02;;;;;;;12.10;10.27;;;18.40;1.00;;;;;;5109801;28;20409;-75
2022/09/25 10:22:39;;;;;;;12.33;10.37;;;18.80;1.00;;;;;;5110128;28;20917;-73
2022/09/25 10:25:05;;;;;;;10.83;9.10;;;19.00;1.00;;;;;;5089522;28;20413;-73
2022/09/25 10:27:40;;;;;;;12.00;9.10;;;19.40;1.00;;;;;;5089869;28;20433;-73
2022/09/25 10:30:08;;;;;;;10.80;9.13;;;19.90;1.00;;;;;;5069777;28;20877;-76
2022/09/25 10:32:58;;;;;;;11.13;9.30;;;19.90;1.00;;;;;;5069203;28;20995;-73
2022/09/25 10:35:44;;;;;;;9.80;8.50;;;19.30;1.00;;;;;;5069291;28;20481;-74
2022/09/25 10:38:38;;;;;;;10.77;8.90;;;18.80;1.00;;;;;;5069531;28;20462;-74
2022/09/25 10:41:11;;;;;;;10.47;9.30;;;18.50;1.00;;;;;;5068280;28;20417;-73
2022/09/25 10:43:53;;;;;;;10.10;8.60;;;17.90;1.00;;;;;;5075096;28;20449;-73
2022/09/25 10:52:07;;;;;;;10.60;9.33;;;17.50;1.00;;;;;;5109277;28;20447;-73
2022/09/25 10:54:34;;;;;;;13.50;11.23;;;17.50;1.00;;;;;;5109929;28;20416;-74
2022/09/25 10:57:01;;;;;;;13.47;9.70;;;17.60;1.00;;;;;;5109918;28;20459;-74
2022/09/25 10:59:27;;;;;;;12.73;10.70;;;17.60;1.90;;;;;;5109637;28;20916;-74
2022/09/25 11:01:54;;;;;;;13.73;8.73;;;17.40;1.90;;;;;;5111487;28;20440;-73
2022/09/25 11:04:30;;;;;;;12.43;9.80;;;17.30;1.00;;;;;;5113707;28;20405;-73
2022/09/25 11:07:00;;;;;;;12.07;9.70;;;17.30;5.20;;;;;;5113224;28;20944;-73
2022/09/25 11:09:27;;;;;;;12.70;9.63;;;17.20;9.10;;;;;;5111801;28;20488;-73
2022/09/25 11:12:05;;;;;;;11.10;8.73;;;17.10;8.00;;;;;;5109472;28;20815;-73
2022/09/25 11:14:34;;;;;;;12.13;9.50;;;17.20;15.50;;;;;;5092400;28;20970;-73
2022/09/25 11:17:04;;;;;;;11.20;9.03;;;17.40;13.80;;;;;;5100031;28;20410;-73
2022/09/25 11:19:32;;;;;;;9.97;8.53;;;17.70;13.70;;;;;;5092679;28;20430;-74
2022/09/25 11:22:07;;;;;;;9.40;8.00;;;18.00;1.00;;;;;;5092451;28;20410;-74
2022/09/25 11:24:48;;;;;;;10.37;8.83;;;18.20;1.00;;;;;;5092429;28;20409;-73
2022/09/25 11:27:21;;;;;;;12.13;9.17;;;18.20;1.00;;;;;;5092890;28;20432;-74
2022/09/25 11:30:11;;;;;;;10.43;8.00;;;18.20;1.00;;;;;;5092377;28;20451;-74
2022/09/25 11:32:53;;;;;;;8.60;7.70;;;18.00;1.00;;;;;;5092581;28;20814;-72
2022/09/25 11:35:39;;;;;;;8.43;7.53;;;17.90;1.00;;;;;;5092531;28;20409;-73
2022/09/25 11:38:10;;;;;;;9.07;7.20;;;17.80;1.00;;;;;;5091240;28;20430;-74
2022/09/25 11:43:46;;;;;;;8.37;7.20;;;17.90;1.00;;;;;;5092426;28;20447;-74
2022/09/25 11:46:41;;;;;;;9.73;8.17;;;18.10;1.00;;;;;;5104205;28;20427;-74
2022/09/25 11:49:25;;;;;;;10.00;7.83;;;18.60;1.00;;;;;;5089829;28;20437;-73
2022/09/25 11:52:10;;;;;;;10.47;7.60;;;19.10;1.00;;;;;;5091558;28;20708;-73
2022/09/25 11:54:53;;;;;;;7.70;6.70;;;19.50;1.00;;;;;;5092026;28;20609;-73
2022/09/25 11:57:31;;;;;;;7.67;6.87;;;19.80;1.00;;;;;;5092659;28;20438;-74
2022/09/25 12:00:04;;;;;;;8.30;6.90;;;19.70;1.00;;;;;;5074282;28;20406;-73
2022/09/25 12:02:36;;;;;;;7.90;7.10;;;19.30;1.00;;;;;;5070036;28;20486;-74
2022/09/25 12:05:48;;;;;;;7.60;6.83;;;19.00;1.00;;;;;;5071760;28;20402;-74
2022/09/25 12:08:34;;;;;;;9.00;5.77;;;18.60;1.00;;;;;;5071863;28;20847;-73
2022/09/25 12:11:36;;;;;;;7.57;5.60;;;18.50;1.00;;;;;;5071131;28;20896;-74
2022/09/25 12:14:13;;;;;;;6.70;6.00;;;18.50;1.00;;;;;;5082489;28;20922;-74
2022/09/25 12:16:54;;;;;;;5.93;5.20;;;18.60;1.00;;;;;;5102290;28;20934;-73
2022/09/25 12:19:25;;;;;;;5.80;5.00;;;18.80;1.00;;;;;;5103482;28;20568;-74
2022/09/25 12:22:15;;;;;;;6.27;4.67;;;19.00;1.00;;;;;;5091760;28;20478;-74
2022/09/25 12:25:03;;;;;;;6.20;4.97;;;19.30;1.00;;;;;;5091357;28;20421;-73
2022/09/25 12:27:46;;;;;;;6.23;4.43;;;19.60;1.00;;;;;;5091816;28;20503;-74
2022/09/25 12:30:20;;;;;;;5.83;4.37;;;19.70;1.00;;;;;;5072522;28;20446;-73
2022/09/25 12:33:05;;;;;;;6.50;4.60;;;19.70;1.00;;;;;;5071128;28;21021;-74
2022/09/25 12:35:54;;;;;;;6.60;5.20;;;19.80;1.00;;;;;;5070764;28;20406;-74
2022/09/25 12:38:43;;;;;;;7.70;6.00;;;20.00;1.00;;;;;;5071529;28;20738;-74
2022/09/25 12:41:50;;;;;;;6.60;5.57;;;19.90;1.00;;;;;;5070583;28;20894;-73
2022/09/25 12:44:27;;;;;;;10.00;5.50;;;20.20;1.00;;;;;;5082403;28;20412;-74
2022/09/25 12:47:00;;;;;;;7.00;5.23;;;20.90;1.00;;;;;;5103125;28;20415;-74
2022/09/25 12:49:44;;;;;;;6.33;5.30;;;21.80;1.00;;;;;;5111477;28;20397;-74
2022/09/25 12:52:14;;;;;;;6.70;5.10;;;22.30;1.00;;;;;;5110908;28;20487;-74
2022/09/25 12:55:15;;;;;;;5.60;4.80;;;22.60;1.00;;;;;;5111193;28;20469;-74
2022/09/25 12:57:40;;;;;;;6.63;5.33;;;22.80;1.00;;;;;;5108065;28;20472;-74
2022/09/25 13:00:19;;;;;;;10.30;5.10;;;22.90;1.00;;;;;;5111428;28;20425;-75
2022/09/25 13:03:07;;;;;;;5.73;4.93;;;22.40;1.00;;;;;;5111258;28;20179;-74
2022/09/25 13:05:36;;;;;;;4.47;4.07;;;21.90;1.00;;;;;;5110886;28;20487;-74
2022/09/25 13:08:22;;;;;;;4.90;4.23;;;21.10;1.00;;;;;;5109781;28;20449;-74
2022/09/25 13:10:54;;;;;;;6.07;4.43;;;20.40;1.00;;;;;;5110716;28;20409;-73
2022/09/25 13:13:24;;;;;;;5.07;4.40;;;19.90;1.00;;;;;;5095099;28;20449;-73
2022/09/25 13:16:01;;;;;;;5.20;4.30;;;19.50;1.00;;;;;;5098627;28;20405;-74